CEB821 RPLL-RPUV
Flight info
| Callsign | CEB821 |
|---|---|
| Flight time | 0h 44m |
| Altitude | 23000 |
| Route | TIMON4V TIMON W15 RAGAY W15A NGA |
| Aircraft | A320/M-SDE3FGHIRWY/LB1 |
Departure
| Time | 2026-05-01 13:07 |
|---|---|
| Airport | Ninoy Aquino International Airport (RPLL) |
Arrival
| Time | 2026-05-01 13:52 |
|---|---|
| Airport | Virac Airport (RPUV) |
| Time | Latitude | Longitude | Altitude | Speed | Heading |
|---|---|---|---|---|---|
| 2026-05-01 12:40 | 14.52396 | 121.00771 | 82 ft | 0 kts | 44° |
| 2026-05-01 12:54 | 14.52384 | 121.00758 | 82 ft | 2 kts | 44° |
| 2026-05-01 12:54 | 14.52373 | 121.00748 | 82 ft | 2 kts | 44° |
| 2026-05-01 12:55 | 14.52351 | 121.00726 | 82 ft | 2 kts | 44° |
| 2026-05-01 12:55 | 14.52340 | 121.00715 | 82 ft | 2 kts | 44° |
| 2026-05-01 12:55 | 14.52333 | 121.00708 | 82 ft | 1 kts | 44° |
| 2026-05-01 12:56 | 14.52321 | 121.00701 | 81 ft | 2 kts | 355° |
| 2026-05-01 12:56 | 14.52310 | 121.00705 | 82 ft | 0 kts | 318° |
| 2026-05-01 12:56 | 14.52305 | 121.00711 | 82 ft | 0 kts | 314° |
| 2026-05-01 13:02 | 14.52307 | 121.00709 | 81 ft | 1 kts | 314° |
| 2026-05-01 13:07 | 14.51826 | 121.00960 | 82 ft | 138 kts | 135° |
| 2026-05-01 13:07 | 14.51062 | 121.01749 | 542 ft | 163 kts | 134° |
| 2026-05-01 13:07 | 14.50243 | 121.02591 | 1279 ft | 172 kts | 135° |
| 2026-05-01 13:08 | 14.49398 | 121.03439 | 2090 ft | 167 kts | 135° |
| 2026-05-01 13:08 | 14.48569 | 121.04257 | 2642 ft | 166 kts | 135° |
| 2026-05-01 13:08 | 14.47706 | 121.05133 | 2946 ft | 184 kts | 136° |
| 2026-05-01 13:08 | 14.46741 | 121.06149 | 3013 ft | 215 kts | 134° |
| 2026-05-01 13:09 | 14.45548 | 121.07336 | 2983 ft | 252 kts | 135° |
| 2026-05-01 13:09 | 14.44238 | 121.08602 | 2989 ft | 263 kts | 135° |
| 2026-05-01 13:09 | 14.42868 | 121.09946 | 3347 ft | 273 kts | 135° |
| 2026-05-01 13:09 | 14.41559 | 121.11342 | 4212 ft | 269 kts | 124° |
| 2026-05-01 13:10 | 14.40727 | 121.13067 | 4979 ft | 267 kts | 109° |
| 2026-05-01 13:10 | 14.40101 | 121.14855 | 5617 ft | 270 kts | 108° |
| 2026-05-01 13:10 | 14.39486 | 121.16714 | 6222 ft | 274 kts | 107° |
| 2026-05-01 13:10 | 14.38872 | 121.18565 | 6820 ft | 275 kts | 107° |
| 2026-05-01 13:11 | 14.38252 | 121.20450 | 7408 ft | 279 kts | 107° |
| 2026-05-01 13:11 | 14.37628 | 121.22360 | 8032 ft | 282 kts | 108° |
| 2026-05-01 13:11 | 14.36880 | 121.24234 | 8642 ft | 285 kts | 113° |
| 2026-05-01 13:11 | 14.36023 | 121.26096 | 9239 ft | 287 kts | 114° |
| 2026-05-01 13:12 | 14.35151 | 121.27962 | 9794 ft | 290 kts | 114° |
| 2026-05-01 13:12 | 14.34289 | 121.29826 | 10295 ft | 294 kts | 114° |
| 2026-05-01 13:12 | 14.33399 | 121.31772 | 10550 ft | 307 kts | 114° |
| 2026-05-01 13:12 | 14.32454 | 121.33849 | 10785 ft | 320 kts | 114° |
| 2026-05-01 13:13 | 14.31491 | 121.35975 | 11036 ft | 332 kts | 114° |
| 2026-05-01 13:13 | 14.30494 | 121.38177 | 11458 ft | 337 kts | 114° |
| 2026-05-01 13:13 | 14.29499 | 121.40379 | 11969 ft | 339 kts | 113° |
| 2026-05-01 13:13 | 14.28494 | 121.42606 | 12482 ft | 341 kts | 113° |
| 2026-05-01 13:14 | 14.27495 | 121.44822 | 12967 ft | 343 kts | 113° |
| 2026-05-01 13:14 | 14.26485 | 121.47060 | 13431 ft | 345 kts | 113° |
| 2026-05-01 13:14 | 14.25470 | 121.49309 | 13878 ft | 348 kts | 113° |
| 2026-05-01 13:14 | 14.24439 | 121.51594 | 14332 ft | 350 kts | 113° |
| 2026-05-01 13:15 | 14.23420 | 121.53854 | 14761 ft | 351 kts | 113° |
| 2026-05-01 13:15 | 14.22387 | 121.56142 | 15154 ft | 354 kts | 113° |
| 2026-05-01 13:15 | 14.21329 | 121.58484 | 15569 ft | 357 kts | 113° |
| 2026-05-01 13:15 | 14.20281 | 121.60805 | 15989 ft | 360 kts | 114° |
| 2026-05-01 13:16 | 14.19216 | 121.63161 | 16411 ft | 362 kts | 114° |
| 2026-05-01 13:16 | 14.18139 | 121.65542 | 16827 ft | 364 kts | 114° |
| 2026-05-01 13:16 | 14.17066 | 121.67914 | 17230 ft | 365 kts | 114° |
| 2026-05-01 13:17 | 14.13811 | 121.75093 | 18347 ft | 372 kts | 114° |
| 2026-05-01 13:17 | 14.12714 | 121.77512 | 18707 ft | 374 kts | 114° |
| 2026-05-01 13:18 | 14.10501 | 121.82400 | 19403 ft | 379 kts | 114° |
| 2026-05-01 13:18 | 14.09378 | 121.84878 | 19741 ft | 381 kts | 114° |
| 2026-05-01 13:18 | 14.08243 | 121.87381 | 20079 ft | 384 kts | 114° |
| 2026-05-01 13:18 | 14.07109 | 121.89881 | 20401 ft | 385 kts | 114° |
| 2026-05-01 13:19 | 14.05977 | 121.92375 | 20704 ft | 388 kts | 114° |
| 2026-05-01 13:19 | 14.04792 | 121.94891 | 21008 ft | 391 kts | 116° |
| 2026-05-01 13:19 | 14.02285 | 121.99912 | 21604 ft | 395 kts | 116° |
| 2026-05-01 13:20 | 14.01014 | 122.02451 | 21884 ft | 397 kts | 116° |
| 2026-05-01 13:20 | 13.99740 | 122.05000 | 22158 ft | 400 kts | 116° |
| 2026-05-01 13:20 | 13.98468 | 122.07548 | 22429 ft | 402 kts | 116° |
| 2026-05-01 13:21 | 13.95882 | 122.12722 | 22901 ft | 405 kts | 116° |
| 2026-05-01 13:21 | 13.94595 | 122.15295 | 22937 ft | 405 kts | 116° |
| 2026-05-01 13:21 | 13.93302 | 122.17879 | 22957 ft | 404 kts | 116° |
| 2026-05-01 13:21 | 13.92014 | 122.20451 | 22956 ft | 404 kts | 116° |
| 2026-05-01 13:22 | 13.90733 | 122.23006 | 22946 ft | 403 kts | 117° |
| 2026-05-01 13:22 | 13.89437 | 122.25590 | 22941 ft | 403 kts | 117° |
| 2026-05-01 13:22 | 13.88145 | 122.28165 | 22939 ft | 403 kts | 117° |
| 2026-05-01 13:22 | 13.86858 | 122.30732 | 22929 ft | 403 kts | 117° |
| 2026-05-01 13:23 | 13.85563 | 122.33315 | 22917 ft | 403 kts | 117° |
| 2026-05-01 13:23 | 13.84269 | 122.35895 | 22910 ft | 403 kts | 116° |
| 2026-05-01 13:23 | 13.82988 | 122.38447 | 22907 ft | 403 kts | 116° |
| 2026-05-01 13:23 | 13.81702 | 122.41009 | 22908 ft | 403 kts | 116° |
| 2026-05-01 13:24 | 13.80405 | 122.43594 | 22909 ft | 403 kts | 116° |
| 2026-05-01 13:24 | 13.79128 | 122.46140 | 22910 ft | 402 kts | 116° |
| 2026-05-01 13:24 | 13.77835 | 122.48716 | 22910 ft | 402 kts | 116° |
| 2026-05-01 13:25 | 13.75263 | 122.53834 | 22911 ft | 402 kts | 116° |
| 2026-05-01 13:25 | 13.74029 | 122.56395 | 22910 ft | 402 kts | 113° |
| 2026-05-01 13:25 | 13.73002 | 122.59068 | 22909 ft | 402 kts | 108° |
| 2026-05-01 13:25 | 13.72213 | 122.61853 | 22909 ft | 401 kts | 103° |
| 2026-05-01 13:26 | 13.71593 | 122.64658 | 22908 ft | 401 kts | 102° |
| 2026-05-01 13:26 | 13.70998 | 122.67466 | 22852 ft | 402 kts | 102° |
| 2026-05-01 13:26 | 13.70408 | 122.70258 | 22659 ft | 400 kts | 102° |
| 2026-05-01 13:26 | 13.69817 | 122.73048 | 22454 ft | 398 kts | 102° |
| 2026-05-01 13:27 | 13.69227 | 122.75817 | 22240 ft | 396 kts | 102° |
| 2026-05-01 13:27 | 13.68637 | 122.78579 | 22025 ft | 395 kts | 102° |
| 2026-05-01 13:27 | 13.67453 | 122.84100 | 21583 ft | 392 kts | 102° |
| 2026-05-01 13:28 | 13.66277 | 122.89575 | 21105 ft | 388 kts | 102° |
| 2026-05-01 13:28 | 13.65693 | 122.92293 | 20842 ft | 386 kts | 102° |
| 2026-05-01 13:29 | 13.64546 | 122.97622 | 20079 ft | 380 kts | 102° |
| 2026-05-01 13:29 | 13.63407 | 123.02904 | 19183 ft | 375 kts | 102° |
| 2026-05-01 13:30 | 13.61181 | 123.13224 | 17348 ft | 364 kts | 102° |
| 2026-05-01 13:31 | 13.60093 | 123.18266 | 16463 ft | 357 kts | 102° |
| 2026-05-01 13:31 | 13.58521 | 123.25651 | 15177 ft | 348 kts | 99° |
| 2026-05-01 13:32 | 13.57995 | 123.30566 | 14247 ft | 345 kts | 93° |
| 2026-05-01 13:33 | 13.57578 | 123.37852 | 12873 ft | 334 kts | 93° |
| 2026-05-01 13:33 | 13.57305 | 123.42570 | 12006 ft | 326 kts | 93° |
| 2026-05-01 13:34 | 13.57042 | 123.47141 | 11171 ft | 318 kts | 93° |
| 2026-05-01 13:34 | 13.56781 | 123.51614 | 10406 ft | 306 kts | 93° |
| 2026-05-01 13:35 | 13.56541 | 123.55815 | 10059 ft | 281 kts | 93° |
| 2026-05-01 13:35 | 13.56429 | 123.57798 | 9982 ft | 270 kts | 93° |
| 2026-05-01 13:35 | 13.56208 | 123.61617 | 9408 ft | 268 kts | 93° |
| 2026-05-01 13:36 | 13.56097 | 123.63548 | 9057 ft | 266 kts | 93° |
| 2026-05-01 13:36 | 13.55986 | 123.65441 | 8720 ft | 264 kts | 93° |
| 2026-05-01 13:36 | 13.55764 | 123.69202 | 8053 ft | 262 kts | 93° |
| 2026-05-01 13:37 | 13.55655 | 123.71053 | 7721 ft | 260 kts | 93° |
| 2026-05-01 13:37 | 13.55547 | 123.72903 | 7389 ft | 258 kts | 93° |
| 2026-05-01 13:37 | 13.55438 | 123.74751 | 7057 ft | 258 kts | 94° |
| 2026-05-01 13:37 | 13.55330 | 123.76570 | 6732 ft | 257 kts | 94° |
| 2026-05-01 13:38 | 13.55109 | 123.80235 | 6082 ft | 255 kts | 93° |
| 2026-05-01 13:38 | 13.55001 | 123.82046 | 5761 ft | 254 kts | 93° |
| 2026-05-01 13:38 | 13.54893 | 123.83851 | 5443 ft | 253 kts | 93° |
| 2026-05-01 13:39 | 13.54784 | 123.85673 | 5126 ft | 253 kts | 93° |
| 2026-05-01 13:39 | 13.54678 | 123.87488 | 4815 ft | 256 kts | 93° |
| 2026-05-01 13:39 | 13.54570 | 123.89301 | 4485 ft | 254 kts | 93° |
| 2026-05-01 13:39 | 13.54460 | 123.91112 | 4159 ft | 252 kts | 93° |
| 2026-05-01 13:40 | 13.54356 | 123.92840 | 3850 ft | 249 kts | 93° |
| 2026-05-01 13:40 | 13.54250 | 123.94612 | 3537 ft | 246 kts | 92° |
| 2026-05-01 13:40 | 13.54147 | 123.96367 | 3282 ft | 241 kts | 92° |
| 2026-05-01 13:40 | 13.54046 | 123.98020 | 3269 ft | 225 kts | 92° |
| 2026-05-01 13:41 | 13.53954 | 123.99581 | 3277 ft | 216 kts | 92° |
| 2026-05-01 13:41 | 13.53864 | 124.01128 | 3287 ft | 216 kts | 92° |
| 2026-05-01 13:41 | 13.53769 | 124.02673 | 3220 ft | 216 kts | 91° |
| 2026-05-01 13:41 | 13.53676 | 124.04217 | 3100 ft | 215 kts | 91° |
| 2026-05-01 13:42 | 13.53588 | 124.05763 | 2962 ft | 214 kts | 92° |
| 2026-05-01 13:42 | 13.53495 | 124.07295 | 2709 ft | 217 kts | 92° |
| 2026-05-01 13:42 | 13.53398 | 124.08835 | 2392 ft | 216 kts | 92° |
| 2026-05-01 13:42 | 13.53303 | 124.10373 | 2097 ft | 216 kts | 91° |
| 2026-05-01 13:43 | 13.53214 | 124.11919 | 1807 ft | 213 kts | 88° |
| 2026-05-01 13:43 | 13.53514 | 124.13375 | 1532 ft | 207 kts | 63° |
| 2026-05-01 13:43 | 13.54241 | 124.14629 | 1299 ft | 202 kts | 57° |
| 2026-05-01 13:43 | 13.54995 | 124.15833 | 1066 ft | 199 kts | 58° |
| 2026-05-01 13:44 | 13.55715 | 124.17028 | 869 ft | 199 kts | 58° |
| 2026-05-01 13:44 | 13.56467 | 124.18329 | 1569 ft | 223 kts | 59° |
| 2026-05-01 13:44 | 13.57236 | 124.19698 | 2289 ft | 215 kts | 59° |
| 2026-05-01 13:44 | 13.57973 | 124.21022 | 2770 ft | 215 kts | 59° |
| 2026-05-01 13:45 | 13.58624 | 124.22399 | 2983 ft | 216 kts | 76° |
| 2026-05-01 13:45 | 13.58554 | 124.23934 | 2997 ft | 220 kts | 109° |
| 2026-05-01 13:45 | 13.57622 | 124.25185 | 3004 ft | 227 kts | 143° |
| 2026-05-01 13:45 | 13.56104 | 124.25724 | 3005 ft | 235 kts | 176° |
| 2026-05-01 13:46 | 13.54479 | 124.25463 | 3012 ft | 241 kts | 193° |
| 2026-05-01 13:46 | 13.52823 | 124.24934 | 3006 ft | 246 kts | 197° |
| 2026-05-01 13:46 | 13.51232 | 124.24271 | 2993 ft | 248 kts | 212° |
| 2026-05-01 13:46 | 13.50001 | 124.23025 | 2999 ft | 250 kts | 233° |
| 2026-05-01 13:47 | 13.49002 | 124.21569 | 2996 ft | 250 kts | 237° |
| 2026-05-01 13:47 | 13.48031 | 124.20052 | 2995 ft | 250 kts | 237° |
| 2026-05-01 13:47 | 13.47097 | 124.18578 | 2857 ft | 245 kts | 237° |
| 2026-05-01 13:47 | 13.46168 | 124.17090 | 2533 ft | 246 kts | 241° |
| 2026-05-01 13:48 | 13.45706 | 124.15437 | 2215 ft | 241 kts | 278° |
| 2026-05-01 13:48 | 13.46315 | 124.13921 | 1917 ft | 228 kts | 319° |
| 2026-05-01 13:48 | 13.47638 | 124.13141 | 1633 ft | 215 kts | 351° |
| 2026-05-01 13:48 | 13.49101 | 124.12935 | 1352 ft | 212 kts | 358° |
| 2026-05-01 13:49 | 13.50580 | 124.12759 | 1070 ft | 210 kts | 356° |
| 2026-05-01 13:49 | 13.51974 | 124.12539 | 988 ft | 189 kts | 354° |
| 2026-05-01 13:49 | 13.53143 | 124.12463 | 1040 ft | 149 kts | 20° |
| 2026-05-01 13:49 | 13.53802 | 124.13115 | 947 ft | 129 kts | 65° |
| 2026-05-01 13:50 | 13.54167 | 124.13948 | 917 ft | 127 kts | 63° |
| 2026-05-01 13:50 | 13.54572 | 124.14757 | 901 ft | 127 kts | 61° |
| 2026-05-01 13:50 | 13.54991 | 124.15556 | 895 ft | 127 kts | 60° |
| 2026-05-01 13:50 | 13.55417 | 124.16352 | 896 ft | 127 kts | 60° |
| 2026-05-01 13:51 | 13.55853 | 124.17162 | 774 ft | 127 kts | 61° |
| 2026-05-01 13:51 | 13.56286 | 124.17953 | 565 ft | 126 kts | 60° |
| 2026-05-01 13:51 | 13.56725 | 124.18742 | 390 ft | 126 kts | 59° |
| 2026-05-01 13:51 | 13.57164 | 124.19527 | 230 ft | 125 kts | 59° |
| 2026-05-01 13:52 | 13.57575 | 124.20265 | 162 ft | 96 kts | 60° |
| 2026-05-01 13:52 | 13.57765 | 124.20609 | 162 ft | 27 kts | 60° |
| 2026-05-01 13:52 | 13.57850 | 124.20763 | 162 ft | 15 kts | 60° |
| 2026-05-01 13:52 | 13.57904 | 124.20860 | 162 ft | 15 kts | 60° |
| 2026-05-01 13:53 | 13.57946 | 124.20938 | 162 ft | 9 kts | 61° |
| 2026-05-01 13:53 | 13.57997 | 124.21057 | 162 ft | 6 kts | 98° |
| 2026-05-01 13:53 | 13.57980 | 124.21097 | 162 ft | 5 kts | 115° |
| 2026-05-01 13:54 | 13.57970 | 124.21138 | 162 ft | 6 kts | 77° |
| 2026-05-01 13:54 | 13.57992 | 124.21179 | 162 ft | 6 kts | 59° |
| 2026-05-01 13:54 | 13.58005 | 124.21203 | 162 ft | 1 kts | 84° |
| 2026-05-01 13:54 | 13.57996 | 124.21217 | 162 ft | 2 kts | 148° |
| 2026-05-01 13:55 | 13.57982 | 124.21219 | 162 ft | 0 kts | 180° |
| 2026-05-01 13:55 | 13.57969 | 124.21219 | 162 ft | 2 kts | 180° |